Anandale, Louisiana
Current Conditions -  °F | °C
As of 10:53 PM on Sunday 21 Dec 2014 (Local Time) from KAEX Reporting Station
Haze Haze  
Wind Chill: 47°   Ceiling: 200
Heat Index: 49°   Visibility: 2mi
Dew Point: 48°   Wind: 5mph
Humidity: 97%   Direction: 180°S
Pressure: 29.93"   Gusts: NA
Location:  31.2655°N, 92.4705°W
Report Text: KAEX 220453Z 18004KT 2SM BR OVC002 09/09 A2993 RMK AO2 SLP138 T00940089
Loading
Personal Weather Stations






























Interactive Weather Map New forecast layout! Learn more

10-Day Weather Forecast

Advertisements
Track Severe Weather on mobile